createdAt,value
2023-03-12T00:00:11.300Z,1.03
2023-03-12T00:05:12.536Z,1.04
2023-03-12T00:10:13.688Z,1.04
2023-03-12T00:15:14.945Z,1.04
2023-03-12T00:20:16.114Z,1.03
2023-03-12T00:25:17.273Z,1.05
2023-03-12T00:30:18.477Z,1.10
2023-03-12T00:35:19.650Z,1.12
2023-03-12T00:40:20.844Z,1.16
2023-03-12T00:45:22.141Z,1.21
2023-03-12T00:50:23.292Z,1.23
2023-03-12T00:55:24.508Z,1.24
2023-03-12T01:00:25.728Z,1.23
2023-03-12T01:05:27.001Z,1.26
2023-03-12T01:10:28.207Z,1.27
2023-03-12T01:15:29.411Z,1.27
2023-03-12T01:20:30.600Z,0.98
2023-03-12T01:25:33.915Z,1.33
2023-03-12T01:30:35.111Z,1.33
2023-03-12T01:35:36.422Z,1.35
2023-03-12T01:40:38.026Z,1.35
2023-03-12T01:45:39.201Z,1.34
2023-03-12T01:50:42.212Z,1.36
2023-03-12T01:55:43.382Z,1.34
2023-03-12T02:00:44.597Z,1.33
2023-03-12T02:05:45.834Z,1.28
2023-03-12T02:10:47.061Z,1.17
2023-03-12T02:15:48.260Z,1.12
2023-03-12T02:20:49.446Z,1.24
2023-03-12T02:25:50.615Z,1.34
2023-03-12T02:30:51.773Z,1.39
2023-03-12T02:35:53.071Z,1.46
2023-03-12T02:40:54.276Z,1.52
2023-03-12T02:45:55.626Z,1.59
2023-03-12T02:50:56.864Z,1.65
2023-03-12T02:55:58.090Z,1.68
2023-03-12T03:00:59.306Z,1.67
2023-03-12T03:06:00.559Z,1.68
2023-03-12T03:11:03.093Z,1.66
2023-03-12T03:16:04.392Z,1.63
2023-03-12T03:21:05.562Z,1.62
2023-03-12T03:26:06.745Z,1.61
2023-03-12T03:31:08.083Z,1.54
2023-03-12T03:36:09.337Z,1.53
2023-03-12T03:41:10.467Z,1.62
2023-03-12T03:46:11.737Z,1.67
2023-03-12T03:51:12.948Z,1.71
2023-03-12T03:56:14.144Z,1.75
2023-03-12T04:01:15.332Z,1.75
2023-03-12T04:06:16.528Z,1.77
2023-03-12T04:11:17.747Z,1.81
2023-03-12T04:16:18.964Z,1.84
2023-03-12T04:21:20.252Z,1.86
2023-03-12T04:26:21.428Z,1.88
2023-03-12T04:31:22.680Z,1.91
2023-03-12T04:36:23.893Z,1.93
2023-03-12T04:41:25.027Z,1.94
2023-03-12T04:46:26.266Z,1.96
2023-03-12T04:51:27.491Z,1.97
2023-03-12T04:56:28.730Z,1.98
2023-03-12T05:01:29.901Z,2.02
2023-03-12T05:06:31.127Z,2.03
2023-03-12T05:11:32.327Z,2.06
2023-03-12T05:16:33.559Z,2.07
2023-03-12T05:21:34.747Z,2.05
2023-03-12T05:26:35.946Z,1.98
2023-03-12T05:31:37.231Z,1.86
2023-03-12T05:36:38.419Z,1.77
2023-03-12T05:41:39.624Z,1.70
2023-03-12T05:46:40.863Z,1.66
2023-03-12T05:51:43.280Z,1.61
2023-03-12T05:56:44.484Z,1.55
2023-03-12T06:01:45.753Z,1.58
2023-03-12T06:06:46.927Z,1.61
2023-03-12T06:11:48.068Z,1.64
2023-03-12T06:16:49.351Z,1.67
2023-03-12T06:21:50.598Z,1.68
2023-03-12T06:26:51.886Z,1.70
2023-03-12T06:31:53.323Z,1.70
2023-03-12T06:36:54.518Z,1.73
2023-03-12T06:41:55.694Z,1.76
2023-03-12T06:46:56.880Z,1.82
2023-03-12T06:51:58.073Z,1.95
2023-03-12T06:56:59.596Z,2.02
2023-03-12T07:02:00.879Z,2.07
2023-03-12T07:07:02.415Z,2.19
2023-03-12T07:12:04.144Z,2.17
2023-03-12T07:17:05.437Z,2.13
2023-03-12T07:22:06.695Z,2.13
2023-03-12T07:27:07.942Z,2.16
2023-03-12T07:32:09.147Z,2.24
2023-03-12T07:37:10.425Z,2.35
2023-03-12T07:42:12.804Z,2.46
2023-03-12T07:47:23.773Z,2.48
2023-03-12T07:52:25.806Z,2.49
2023-03-12T07:57:26.973Z,2.53
2023-03-12T08:02:28.268Z,2.58
2023-03-12T08:07:32.268Z,2.64
2023-03-12T08:12:33.588Z,2.76
2023-03-12T08:17:35.136Z,2.74
2023-03-12T08:22:36.456Z,2.80
2023-03-12T08:27:37.603Z,2.86
2023-03-12T08:32:38.991Z,2.94
2023-03-12T08:37:41.401Z,3.00
2023-03-12T08:42:42.655Z,3.08
2023-03-12T08:47:44.536Z,3.08
2023-03-12T08:52:45.788Z,3.17
2023-03-12T08:57:46.977Z,3.25
2023-03-12T09:02:49.769Z,3.26
2023-03-12T09:07:51.025Z,3.33
2023-03-12T09:12:52.229Z,3.41
2023-03-12T09:17:54.028Z,3.52
2023-03-12T09:22:55.237Z,3.58
2023-03-12T09:27:56.399Z,3.55
2023-03-12T09:32:57.884Z,3.52
2023-03-12T09:37:59.083Z,3.57
2023-03-12T09:43:00.266Z,3.63
2023-03-12T09:48:01.511Z,3.70
2023-03-12T09:53:02.720Z,3.77
2023-03-12T09:58:03.940Z,3.82
2023-03-12T10:03:05.244Z,3.83
2023-03-12T10:08:23.076Z,3.89
2023-03-12T10:13:25.283Z,3.95
2023-03-12T10:18:26.592Z,4.06
2023-03-12T10:23:28.628Z,4.27
2023-03-12T10:28:29.774Z,4.40
2023-03-12T10:33:30.950Z,4.41
2023-03-12T10:38:32.153Z,4.39
2023-03-12T10:43:33.351Z,4.48
2023-03-12T10:48:34.527Z,4.59
2023-03-12T10:53:35.817Z,4.64
2023-03-12T10:58:37.074Z,4.74
2023-03-12T11:03:38.634Z,4.81
2023-03-12T11:08:39.905Z,4.82
2023-03-12T11:13:41.054Z,4.84
2023-03-12T11:18:42.243Z,4.90
2023-03-12T11:23:43.875Z,5.00
2023-03-12T11:28:45.098Z,5.03
2023-03-12T11:33:46.321Z,5.15
2023-03-12T11:38:47.535Z,5.33
2023-03-12T11:43:48.793Z,5.53
2023-03-12T11:48:50.103Z,5.78
2023-03-12T11:53:51.326Z,5.81
2023-03-12T11:58:52.541Z,5.80
2023-03-12T12:03:53.828Z,5.89
2023-03-12T12:08:55.013Z,6.09
2023-03-12T12:13:56.213Z,6.21
2023-03-12T12:18:57.465Z,6.30
2023-03-12T12:23:58.609Z,6.35
2023-03-12T12:28:59.920Z,6.49
2023-03-12T12:34:01.995Z,6.80
2023-03-12T12:39:06.085Z,7.46
2023-03-12T12:44:07.334Z,7.96
2023-03-12T12:49:08.525Z,8.12
2023-03-12T12:54:10.405Z,7.99
2023-03-12T12:59:11.623Z,8.06
2023-03-12T13:04:12.873Z,8.23
2023-03-12T13:09:14.125Z,8.42
2023-03-12T13:14:15.325Z,8.75
2023-03-12T13:19:16.601Z,9.38
2023-03-12T13:24:18.420Z,9.46
2023-03-12T13:29:19.732Z,9.42
2023-03-12T13:34:20.906Z,9.41
2023-03-12T13:39:22.116Z,9.55
2023-03-12T13:44:23.303Z,9.71
2023-03-12T13:49:24.439Z,9.97
2023-03-12T13:54:25.636Z,10.15
2023-03-12T13:59:26.774Z,10.19
2023-03-12T14:04:27.998Z,10.20
2023-03-12T14:09:29.220Z,10.18
2023-03-12T14:14:30.424Z,10.28
2023-03-12T14:19:31.654Z,10.34
2023-03-12T14:24:32.959Z,10.46
2023-03-12T14:29:35.865Z,10.55
2023-03-12T14:34:36.994Z,10.58
2023-03-12T14:39:38.159Z,10.56
2023-03-12T14:44:42.137Z,10.64
2023-03-12T14:49:43.347Z,10.69
2023-03-12T14:54:44.566Z,10.73
2023-03-12T14:59:45.702Z,10.81
2023-03-12T15:04:46.945Z,10.86
2023-03-12T15:09:49.819Z,10.91
2023-03-12T15:14:51.012Z,10.94
2023-03-12T15:19:54.518Z,10.98
2023-03-12T15:24:55.701Z,11.03
2023-03-12T15:29:56.894Z,10.94
2023-03-12T15:34:59.239Z,10.87
2023-03-12T15:40:01.367Z,10.80
2023-03-12T15:45:07.639Z,10.87
2023-03-12T15:50:08.906Z,10.87
2023-03-12T15:55:12.898Z,10.94
2023-03-12T16:00:14.092Z,10.96
2023-03-12T16:05:15.297Z,10.98
2023-03-12T16:10:16.495Z,10.94
2023-03-12T16:15:17.678Z,10.85
2023-03-12T16:20:19.963Z,10.89
2023-03-12T16:25:21.192Z,10.86
2023-03-12T16:30:22.413Z,10.81
2023-03-12T16:35:23.744Z,10.76
2023-03-12T16:40:33.463Z,10.70
2023-03-12T16:45:35.199Z,10.73
2023-03-12T16:50:36.572Z,10.64
2023-03-12T16:55:37.773Z,10.65
2023-03-12T17:00:38.965Z,10.60
2023-03-12T17:05:40.094Z,10.52
2023-03-12T17:10:41.280Z,10.46
2023-03-12T17:15:42.547Z,10.38
2023-03-12T17:20:43.837Z,10.31
2023-03-12T17:25:45.043Z,10.35
2023-03-12T17:30:47.350Z,10.36
2023-03-12T17:35:48.699Z,10.33
2023-03-12T17:40:49.976Z,10.20
2023-03-12T17:45:51.268Z,10.07
2023-03-12T17:50:52.463Z,9.97
2023-03-12T17:55:53.736Z,9.90
2023-03-12T18:00:54.926Z,9.84
2023-03-12T18:05:56.066Z,9.83
2023-03-12T18:10:57.434Z,9.85
2023-03-12T18:15:58.664Z,9.81
2023-03-12T18:21:00.201Z,9.65
2023-03-12T18:26:01.429Z,9.62
2023-03-12T18:31:03.719Z,9.59
2023-03-12T18:36:04.957Z,9.46
2023-03-12T18:41:06.308Z,9.40
2023-03-12T18:46:08.467Z,9.53
2023-03-12T18:51:09.763Z,9.56
2023-03-12T18:56:10.981Z,9.66
2023-03-12T19:01:13.774Z,9.68
2023-03-12T19:06:15.068Z,9.71
2023-03-12T19:11:16.264Z,9.75
2023-03-12T19:16:21.635Z,9.70
2023-03-12T19:21:22.893Z,9.61
2023-03-12T19:26:24.103Z,9.76
2023-03-12T19:31:25.398Z,9.64
2023-03-12T19:36:26.668Z,9.50
2023-03-12T19:41:27.847Z,9.45
2023-03-12T19:46:31.115Z,9.38
2023-03-12T19:51:32.357Z,9.32
2023-03-12T19:56:33.585Z,9.22
2023-03-12T20:01:34.854Z,9.17
2023-03-12T20:06:36.046Z,9.16
2023-03-12T20:11:37.240Z,9.12
2023-03-12T20:16:38.624Z,9.10
2023-03-12T20:21:39.886Z,9.08
2023-03-12T20:26:41.294Z,8.96
2023-03-12T20:31:42.474Z,8.92
2023-03-12T20:36:43.605Z,8.84
2023-03-12T20:41:44.768Z,8.82
2023-03-12T20:46:46.141Z,8.78
2023-03-12T20:51:47.374Z,8.76
2023-03-12T20:56:48.594Z,8.70
2023-03-12T21:01:49.723Z,8.67
2023-03-12T21:06:51.707Z,8.66
2023-03-12T21:11:52.938Z,8.65
2023-03-12T21:16:54.304Z,8.61
2023-03-12T21:21:55.568Z,8.58
2023-03-12T21:26:56.697Z,8.58
2023-03-12T21:31:57.905Z,8.58
2023-03-12T21:36:59.162Z,8.58
2023-03-12T21:42:00.681Z,8.55
2023-03-12T21:47:02.220Z,8.35
2023-03-12T21:52:03.470Z,8.48
2023-03-12T21:57:04.737Z,8.47
2023-03-12T22:02:05.901Z,8.45
2023-03-12T22:07:07.112Z,8.38
2023-03-12T22:12:08.276Z,8.34
2023-03-12T22:17:09.448Z,8.30
2023-03-12T22:22:10.625Z,8.31
2023-03-12T22:27:11.879Z,8.39
2023-03-12T22:32:13.017Z,8.35
2023-03-12T22:37:14.158Z,8.35
2023-03-12T22:42:15.292Z,8.39
2023-03-12T22:47:16.463Z,8.39
2023-03-12T22:52:17.670Z,8.40
2023-03-12T22:57:18.811Z,8.36
2023-03-12T23:02:19.950Z,8.33
2023-03-12T23:07:21.165Z,8.35
2023-03-12T23:12:22.416Z,8.33
2023-03-12T23:17:23.608Z,8.33
2023-03-12T23:22:24.826Z,8.34
2023-03-12T23:27:25.968Z,8.37
2023-03-12T23:32:27.166Z,8.38
2023-03-12T23:37:28.417Z,8.45
2023-03-12T23:42:29.599Z,8.53
2023-03-12T23:47:30.785Z,8.56
2023-03-12T23:52:31.947Z,8.55
2023-03-12T23:57:33.080Z,8.58
